Arapahoe, Colorado
Current Conditions -  °F | °C
As of 10:53 AM on Saturday 20 Dec 2014 (Local Time) from KITR Reporting Station
Clear Clear  
Wind Chill: 40°   Ceiling: Unl
Heat Index: 45°   Visibility: 10mi
Dew Point: 27°   Wind: 10mph
Humidity: 49%   Direction: 260°W
Pressure: 30.01"   Gusts: NA
Location:  38.85°N, 102.18°W
Report Text: KITR 201753Z AUTO 26009KT 10SM CLR 07/M03 A3001 RMK AO2 SLP167 T00721028 10078 21039 58001
Loading
Personal Weather Stations






























Interactive Weather Map New forecast layout! Learn more

10-Day Weather Forecast

Advertisements
Track Severe Weather on mobile